Time;durP1;ratioP1;P1;durP2;ratioP2;P2;SDS_P1;SDS_P2;PMS_P1;PMS_P2;Temp;Humidity;BMP_temperature;BMP_pressure;BME280_temperature;BME280_humidity;BME280_pressure;Samples;Min_cycle;Max_cycle;Signal;HPM_P1;HPM_P2
2023/05/13 00:01:37;;;;;;;5.20;4.20;;;10.90;99.90;;;;;;5012467;28;20473;-68
2023/05/13 00:04:06;;;;;;;5.40;4.70;;;10.80;99.90;;;;;;5011719;28;20525;-68
2023/05/13 00:06:34;;;;;;;4.33;4.03;;;10.80;99.90;;;;;;5012278;28;20553;-68
2023/05/13 00:09:04;;;;;;;6.43;4.70;;;10.80;99.90;;;;;;5012644;28;20448;-69
2023/05/13 00:11:32;;;;;;;6.07;5.40;;;10.80;99.90;;;;;;5012335;28;20933;-68
2023/05/13 00:14:00;;;;;;;4.97;4.57;;;10.80;99.90;;;;;;5011339;28;20458;-68
2023/05/13 00:16:28;;;;;;;8.23;4.27;;;10.90;99.90;;;;;;5012529;28;20610;-68
2023/05/13 00:18:58;;;;;;;5.00;4.50;;;10.90;99.90;;;;;;5012290;28;20539;-68
2023/05/13 00:21:26;;;;;;;5.33;4.83;;;10.80;99.90;;;;;;5012284;28;20896;-68
2023/05/13 00:23:54;;;;;;;5.03;4.63;;;10.70;99.90;;;;;;5011142;28;20450;-68
2023/05/13 00:26:22;;;;;;;4.63;4.23;;;10.90;99.90;;;;;;5012434;28;20463;-68
2023/05/13 00:28:50;;;;;;;5.33;4.83;;;11.00;99.90;;;;;;5011834;28;21013;-68
2023/05/13 00:31:18;;;;;;;4.30;3.90;;;11.10;99.90;;;;;;5012344;28;20448;-68
2023/05/13 00:33:46;;;;;;;4.63;4.20;;;11.10;99.90;;;;;;5010764;28;20453;-68
2023/05/13 00:36:15;;;;;;;4.83;4.43;;;11.10;99.90;;;;;;5011960;28;20527;-68
2023/05/13 00:38:43;;;;;;;4.37;4.00;;;11.10;99.90;;;;;;5012316;28;20437;-68
2023/05/13 00:41:12;;;;;;;4.67;4.27;;;11.10;99.90;;;;;;5011595;28;20515;-68
2023/05/13 00:43:39;;;;;;;4.67;4.27;;;11.10;99.90;;;;;;5010680;28;20451;-68
2023/05/13 00:46:08;;;;;;;4.93;4.50;;;11.10;99.90;;;;;;5011606;28;20454;-68
2023/05/13 00:48:36;;;;;;;4.70;4.30;;;11.00;99.90;;;;;;5010810;28;21030;-68
2023/05/13 00:51:04;;;;;;;5.60;5.10;;;10.90;99.90;;;;;;5011746;28;20958;-68
2023/05/13 00:53:34;;;;;;;5.07;4.53;;;10.80;99.90;;;;;;5011231;28;20441;-68
2023/05/13 00:56:02;;;;;;;5.07;4.63;;;10.80;99.90;;;;;;5011740;28;21008;-68
2023/05/13 00:58:30;;;;;;;6.13;5.47;;;10.70;99.90;;;;;;5011723;28;20455;-68
2023/05/13 01:01:17;;;;;;;5.47;4.97;;;10.60;99.90;;;;;;5011653;28;20477;-67
2023/05/13 01:03:53;;;;;;;5.30;4.50;;;10.50;99.90;;;;;;5010616;28;20449;-68
2023/05/13 01:06:26;;;;;;;6.10;5.60;;;10.40;99.90;;;;;;5011587;28;20452;-68
2023/05/13 01:09:01;;;;;;;6.20;5.60;;;10.40;99.90;;;;;;5011340;28;20801;-69
2023/05/13 01:11:33;;;;;;;6.47;5.77;;;10.30;99.90;;;;;;5011865;28;20771;-68
2023/05/13 01:14:03;;;;;;;5.03;4.63;;;10.20;99.90;;;;;;5009884;28;20824;-67
2023/05/13 01:16:35;;;;;;;5.17;4.67;;;10.20;99.90;;;;;;5011107;28;20455;-67
2023/05/13 01:19:13;;;;;;;6.90;4.70;;;10.10;99.90;;;;;;5011285;28;20536;-67
2023/05/13 01:21:52;;;;;;;5.20;4.80;;;10.00;99.90;;;;;;5011099;28;20531;-67
2023/05/13 01:24:20;;;;;;;5.77;5.27;;;9.90;99.90;;;;;;5009815;28;20442;-67
2023/05/13 01:26:48;;;;;;;5.33;4.90;;;9.90;99.90;;;;;;5011225;28;20825;-67
2023/05/13 01:29:16;;;;;;;6.17;5.57;;;9.80;99.90;;;;;;5011039;28;20538;-67
2023/05/13 01:31:46;;;;;;;5.93;5.43;;;9.80;99.90;;;;;;5010931;28;20537;-68
2023/05/13 01:34:15;;;;;;;6.13;5.63;;;9.70;99.90;;;;;;5009725;28;20447;-67
2023/05/13 01:36:45;;;;;;;7.87;6.10;;;9.60;99.90;;;;;;5011072;28;20455;-67
2023/05/13 01:39:13;;;;;;;6.20;5.60;;;9.50;99.90;;;;;;5011046;28;21036;-69
2023/05/13 01:41:41;;;;;;;6.20;5.60;;;9.60;99.90;;;;;;5010725;28;20476;-66
2023/05/13 01:44:09;;;;;;;7.10;6.50;;;9.50;99.90;;;;;;5009687;28;20450;-66
2023/05/13 01:46:38;;;;;;;6.30;5.40;;;9.50;99.90;;;;;;5010492;28;20459;-66
2023/05/13 01:49:08;;;;;;;5.47;4.97;;;9.50;99.90;;;;;;5011126;28;20453;-67
2023/05/13 01:51:36;;;;;;;4.83;4.43;;;9.40;99.90;;;;;;5010924;28;20435;-67
2023/05/13 01:54:06;;;;;;;5.03;4.53;;;9.40;99.90;;;;;;5009192;28;20446;-67
2023/05/13 01:56:34;;;;;;;5.83;5.23;;;9.30;99.90;;;;;;5010466;28;20976;-68
2023/05/13 01:59:02;;;;;;;5.70;5.13;;;9.30;99.90;;;;;;5009913;28;20971;-67
2023/05/13 02:01:30;;;;;;;5.93;5.43;;;9.20;99.90;;;;;;5010502;28;20475;-68
2023/05/13 02:03:58;;;;;;;5.50;5.00;;;9.20;99.90;;;;;;5009128;28;20453;-68
2023/05/13 02:06:27;;;;;;;9.90;5.43;;;9.10;99.90;;;;;;5010934;28;20456;-68
2023/05/13 02:08:55;;;;;;;5.97;5.37;;;8.90;99.90;;;;;;5010672;28;20489;-68
2023/05/13 02:11:24;;;;;;;5.80;5.20;;;9.00;99.90;;;;;;5010875;28;21096;-67
2023/05/13 02:13:52;;;;;;;5.53;4.87;;;9.00;99.90;;;;;;5008921;28;20455;-67
2023/05/13 02:16:20;;;;;;;7.30;5.13;;;9.10;99.90;;;;;;5008930;28;20532;-68
2023/05/13 02:18:48;;;;;;;6.40;5.10;;;9.20;99.90;;;;;;5009199;28;20473;-68
2023/05/13 02:21:16;;;;;;;5.70;5.00;;;9.20;99.90;;;;;;5010157;28;20513;-68
2023/05/13 02:23:44;;;;;;;8.90;5.73;;;9.30;99.90;;;;;;5009054;28;20446;-67
2023/05/13 02:26:12;;;;;;;6.40;4.83;;;9.30;99.90;;;;;;5010318;28;20531;-67
2023/05/13 02:28:41;;;;;;;5.40;4.90;;;9.30;99.90;;;;;;5010233;28;20447;-67
2023/05/13 02:31:09;;;;;;;5.27;4.77;;;9.30;99.90;;;;;;5010092;28;20456;-67
2023/05/13 02:33:37;;;;;;;6.50;5.23;;;9.40;99.90;;;;;;5009204;28;20446;-68
2023/05/13 02:36:05;;;;;;;4.90;4.50;;;9.50;99.90;;;;;;5010124;28;20484;-67
2023/05/13 02:38:33;;;;;;;4.13;3.77;;;9.50;99.90;;;;;;5010063;28;20872;-66
2023/05/13 02:41:01;;;;;;;6.13;4.63;;;9.50;99.90;;;;;;5010056;28;20449;-67
2023/05/13 02:43:30;;;;;;;4.90;4.37;;;9.60;99.90;;;;;;5008582;28;20536;-67
2023/05/13 02:45:59;;;;;;;4.50;4.10;;;9.60;99.90;;;;;;5009968;28;20457;-67
2023/05/13 02:48:27;;;;;;;5.70;5.17;;;9.60;99.90;;;;;;5010365;28;20445;-68
2023/05/13 02:50:55;;;;;;;5.43;4.60;;;9.70;99.90;;;;;;5010531;28;20499;-68
2023/05/13 02:53:23;;;;;;;5.07;4.57;;;9.70;99.90;;;;;;5008967;28;20440;-68
2023/05/13 02:55:51;;;;;;;6.07;5.50;;;9.80;99.90;;;;;;5009948;28;20464;-68
2023/05/13 02:58:19;;;;;;;5.60;5.10;;;9.80;99.90;;;;;;5010010;28;20450;-68
2023/05/13 03:00:47;;;;;;;5.70;5.20;;;9.90;99.90;;;;;;5009682;28;20950;-68
2023/05/13 03:03:16;;;;;;;4.13;3.83;;;9.70;99.90;;;;;;5008832;28;20488;-68
2023/05/13 03:05:44;;;;;;;5.20;4.50;;;9.70;99.90;;;;;;5009784;28;20460;-67
2023/05/13 03:08:12;;;;;;;4.50;4.20;;;9.80;99.90;;;;;;5009987;28;20460;-68
2023/05/13 03:10:40;;;;;;;5.20;3.93;;;9.80;99.90;;;;;;5009637;28;20455;-67
2023/05/13 03:13:07;;;;;;;5.60;4.20;;;9.80;99.90;;;;;;5012899;28;20445;-67
2023/05/13 03:15:35;;;;;;;4.93;4.53;;;9.80;99.90;;;;;;5013808;28;20492;-68
2023/05/13 03:18:03;;;;;;;6.40;5.70;;;9.80;99.90;;;;;;5013347;28;20977;-68
2023/05/13 03:20:33;;;;;;;5.47;4.27;;;9.80;99.90;;;;;;5013931;28;20467;-68
2023/05/13 03:23:01;;;;;;;4.70;4.10;;;9.80;99.90;;;;;;5012298;28;21041;-68
2023/05/13 03:25:29;;;;;;;4.73;4.23;;;9.80;99.90;;;;;;5013898;28;20821;-69
2023/05/13 03:27:56;;;;;;;4.30;3.90;;;9.80;99.90;;;;;;5013394;28;20443;-68
2023/05/13 03:30:24;;;;;;;4.77;4.27;;;9.90;99.90;;;;;;5013562;28;20453;-68
2023/05/13 03:32:52;;;;;;;4.40;4.00;;;9.90;99.90;;;;;;5012028;28;20935;-68
2023/05/13 03:35:20;;;;;;;4.50;4.10;;;9.90;99.90;;;;;;5013630;28;20869;-67
2023/05/13 03:37:49;;;;;;;4.80;4.40;;;9.90;99.90;;;;;;5013569;28;20474;-67
2023/05/13 03:40:18;;;;;;;4.67;4.27;;;9.90;99.90;;;;;;5014030;28;20444;-67
2023/05/13 03:42:47;;;;;;;5.90;4.70;;;9.90;99.90;;;;;;5012302;28;20559;-66
2023/05/13 03:45:15;;;;;;;4.43;4.03;;;9.90;99.90;;;;;;5013194;28;20460;-68
2023/05/13 03:47:43;;;;;;;6.50;3.77;;;9.90;99.90;;;;;;5013814;28;20443;-68
2023/05/13 03:50:11;;;;;;;5.60;5.00;;;9.90;99.90;;;;;;5013483;28;20474;-67
2023/05/13 03:52:38;;;;;;;4.63;4.27;;;9.90;99.90;;;;;;5012236;28;20544;-69
2023/05/13 03:55:08;;;;;;;5.53;4.90;;;9.90;99.90;;;;;;5013401;28;20557;-67
2023/05/13 03:57:36;;;;;;;4.90;4.50;;;9.90;99.90;;;;;;5013925;28;20461;-67
2023/05/13 04:00:05;;;;;;;4.80;4.40;;;9.90;99.90;;;;;;5013456;28;20444;-68
2023/05/13 04:02:33;;;;;;;4.70;4.30;;;9.90;99.90;;;;;;5012331;28;20482;-68
2023/05/13 04:05:01;;;;;;;4.80;4.40;;;9.90;99.90;;;;;;5013476;28;20468;-69
2023/05/13 04:07:29;;;;;;;5.10;4.70;;;9.90;99.90;;;;;;5013309;28;20439;-67
2023/05/13 04:09:57;;;;;;;5.20;4.80;;;9.90;99.90;;;;;;5013661;28;20512;-67
2023/05/13 04:12:26;;;;;;;7.77;4.33;;;10.00;99.90;;;;;;5011958;28;20450;-68
2023/05/13 04:14:54;;;;;;;4.33;3.93;;;10.00;99.90;;;;;;5012700;28;21163;-67
2023/05/13 04:17:22;;;;;;;4.80;4.30;;;10.00;99.90;;;;;;5013003;28;20919;-67
2023/05/13 04:19:52;;;;;;;5.07;4.63;;;10.00;99.90;;;;;;5013292;28;20452;-68
2023/05/13 04:22:21;;;;;;;4.70;4.20;;;10.00;99.90;;;;;;5012252;28;20559;-68
2023/05/13 04:24:50;;;;;;;5.27;3.90;;;10.00;99.90;;;;;;5012546;28;20481;-68
2023/05/13 04:27:18;;;;;;;4.50;4.10;;;10.00;99.90;;;;;;5013223;28;20961;-67
2023/05/13 04:29:48;;;;;;;4.67;4.27;;;10.00;99.90;;;;;;5012198;28;20436;-68
2023/05/13 04:32:20;;;;;;;5.40;4.70;;;10.10;99.90;;;;;;5011734;28;20555;-68
2023/05/13 04:34:48;;;;;;;4.60;4.20;;;10.20;99.90;;;;;;5011376;28;21125;-68
2023/05/13 04:37:16;;;;;;;4.80;4.40;;;10.20;99.90;;;;;;5012495;28;20959;-68
2023/05/13 04:39:46;;;;;;;5.40;4.73;;;10.40;99.90;;;;;;5012284;28;20444;-67
2023/05/13 04:42:15;;;;;;;4.27;3.97;;;10.40;99.90;;;;;;5011991;28;20780;-68
2023/05/13 04:44:43;;;;;;;7.00;5.07;;;10.40;99.90;;;;;;5011184;28;20907;-68
2023/05/13 04:47:12;;;;;;;4.37;3.97;;;10.30;99.90;;;;;;5012027;28;20448;-68
2023/05/13 04:49:41;;;;;;;7.43;4.70;;;10.30;99.90;;;;;;5012229;28;20443;-67
2023/05/13 04:52:11;;;;;;;5.30;4.80;;;10.30;99.90;;;;;;5011477;28;20440;-68
2023/05/13 04:54:39;;;;;;;5.40;4.90;;;10.30;99.90;;;;;;5011227;28;20863;-67
2023/05/13 04:57:07;;;;;;;4.70;4.30;;;10.30;99.90;;;;;;5011688;28;20548;-68
2023/05/13 04:59:35;;;;;;;4.80;4.40;;;10.20;99.90;;;;;;5011921;28;20447;-68
2023/05/13 05:02:03;;;;;;;9.07;5.33;;;10.20;99.90;;;;;;5011511;28;20432;-69
2023/05/13 05:04:35;;;;;;;6.40;4.30;;;10.30;99.90;;;;;;5011855;28;20525;-69
2023/05/13 05:07:03;;;;;;;6.30;5.10;;;10.20;99.90;;;;;;5011923;28;20516;-69
2023/05/13 05:09:31;;;;;;;5.20;4.70;;;10.40;99.90;;;;;;5011425;28;20452;-68
2023/05/13 05:11:59;;;;;;;5.17;4.20;;;10.40;99.90;;;;;;5011830;28;21164;-68
2023/05/13 05:14:27;;;;;;;5.20;4.70;;;10.40;99.90;;;;;;5010259;28;20441;-68
2023/05/13 05:16:55;;;;;;;7.87;5.53;;;10.40;99.60;;;;;;5011401;28;20456;-69
2023/05/13 05:19:23;;;;;;;6.23;4.57;;;10.40;99.90;;;;;;5011109;28;20504;-69
2023/05/13 05:21:52;;;;;;;6.57;4.73;;;10.40;99.90;;;;;;5011336;28;20826;-70
2023/05/13 05:24:20;;;;;;;5.80;4.50;;;10.40;99.70;;;;;;5009861;28;20480;-69
2023/05/13 05:26:48;;;;;;;5.50;4.80;;;10.40;99.70;;;;;;5011339;28;20529;-69
2023/05/13 05:29:16;;;;;;;5.30;4.30;;;10.40;99.90;;;;;;5011266;28;20451;-69
2023/05/13 05:31:44;;;;;;;5.10;4.70;;;10.50;99.90;;;;;;5011088;28;20807;-68
2023/05/13 05:34:12;;;;;;;4.97;4.57;;;10.60;99.90;;;;;;5008997;28;20438;-69
2023/05/13 05:36:40;;;;;;;4.87;4.40;;;10.60;99.60;;;;;;5010599;28;20470;-69
2023/05/13 05:39:10;;;;;;;4.30;4.00;;;10.60;99.90;;;;;;5011121;28;20955;-70
2023/05/13 05:41:38;;;;;;;5.97;4.87;;;10.70;99.80;;;;;;5011001;28;20445;-70
2023/05/13 05:44:06;;;;;;;5.90;4.90;;;10.70;99.70;;;;;;5009513;28;20485;-70
2023/05/13 05:46:34;;;;;;;6.37;4.70;;;10.80;99.40;;;;;;5010581;28;20457;-69
2023/05/13 05:49:02;;;;;;;5.07;4.70;;;10.80;99.50;;;;;;5010603;28;20449;-69
2023/05/13 05:51:30;;;;;;;4.97;4.50;;;10.90;99.20;;;;;;5011032;28;20475;-71
2023/05/13 05:53:58;;;;;;;5.17;4.77;;;10.90;99.10;;;;;;5009501;28;20538;-69
2023/05/13 05:56:27;;;;;;;5.30;4.60;;;11.00;98.70;;;;;;5010778;28;20846;-70
2023/05/13 05:58:55;;;;;;;6.27;4.37;;;11.00;98.60;;;;;;5010167;28;21047;-70
2023/05/13 06:01:23;;;;;;;6.10;5.00;;;10.90;98.40;;;;;;5010748;28;20445;-70
2023/05/13 06:03:51;;;;;;;5.20;4.80;;;10.90;98.80;;;;;;5008968;28;20476;-69
2023/05/13 06:06:21;;;;;;;7.10;4.67;;;10.80;98.30;;;;;;5010809;28;20839;-69
2023/05/13 06:08:49;;;;;;;5.47;4.80;;;10.80;98.50;;;;;;5010790;28;20467;-69
2023/05/13 06:11:17;;;;;;;5.77;5.27;;;10.80;98.50;;;;;;5010720;28;20472;-69
2023/05/13 06:13:47;;;;;;;5.30;4.07;;;10.80;99.00;;;;;;5009406;28;20846;-68
2023/05/13 06:16:14;;;;;;;5.00;4.40;;;10.80;98.90;;;;;;5009911;28;20467;-68
2023/05/13 06:18:42;;;;;;;5.40;4.90;;;10.80;98.90;;;;;;5010823;28;20788;-70
2023/05/13 06:21:11;;;;;;;4.60;4.30;;;10.80;98.90;;;;;;5010421;28;21026;-67
2023/05/13 06:23:39;;;;;;;5.53;5.03;;;10.80;99.00;;;;;;5009762;28;20482;-66
2023/05/13 06:26:07;;;;;;;5.97;5.03;;;10.80;99.20;;;;;;5010284;28;20461;-67
2023/05/13 06:28:35;;;;;;;9.57;5.57;;;10.80;99.10;;;;;;5010480;28;20447;-66
2023/05/13 06:31:04;;;;;;;5.70;5.20;;;10.80;99.40;;;;;;5010701;28;20441;-67
2023/05/13 06:33:32;;;;;;;5.50;5.10;;;10.80;99.50;;;;;;5009239;28;20465;-68
2023/05/13 06:36:00;;;;;;;5.23;4.83;;;11.00;99.20;;;;;;5010385;28;20527;-67
2023/05/13 06:38:28;;;;;;;5.53;4.83;;;11.10;98.80;;;;;;5010118;28;20453;-69
2023/05/13 06:40:56;;;;;;;4.93;4.43;;;11.20;98.40;;;;;;5010289;28;20452;-67
2023/05/13 06:43:24;;;;;;;6.03;5.40;;;11.30;98.00;;;;;;5008248;28;21058;-66
2023/05/13 06:45:51;;;;;;;5.70;5.03;;;11.40;97.50;;;;;;5010012;28;20839;-67
2023/05/13 06:48:21;;;;;;;5.13;4.10;;;11.40;97.10;;;;;;5009926;28;20450;-67
2023/05/13 06:50:49;;;;;;;4.80;4.40;;;11.40;97.40;;;;;;5010131;28;20530;-67
2023/05/13 06:53:17;;;;;;;4.77;4.33;;;11.50;97.80;;;;;;5008723;28;20453;-67
2023/05/13 06:55:45;;;;;;;4.63;4.20;;;11.50;97.10;;;;;;5009133;28;20464;-68
2023/05/13 06:58:13;;;;;;;5.57;5.03;;;11.50;96.80;;;;;;5010142;28;20448;-67
2023/05/13 07:00:41;;;;;;;4.80;4.40;;;11.50;96.50;;;;;;5009518;28;20449;-67
2023/05/13 07:03:09;;;;;;;5.20;4.53;;;11.40;97.50;;;;;;5008874;28;20449;-67
2023/05/13 07:05:38;;;;;;;5.30;4.70;;;11.50;97.90;;;;;;5009556;28;20492;-67
2023/05/13 07:08:07;;;;;;;5.80;5.10;;;11.60;96.70;;;;;;5009871;28;20445;-67
2023/05/13 07:10:35;;;;;;;4.33;3.93;;;11.70;97.00;;;;;;5009722;28;21610;-67
2023/05/13 07:13:04;;;;;;;5.30;4.10;;;11.80;95.80;;;;;;5008629;28;20445;-67
2023/05/13 07:15:32;;;;;;;5.47;4.60;;;11.70;96.00;;;;;;5009428;28;20450;-67
2023/05/13 07:18:00;;;;;;;5.33;4.77;;;11.70;96.00;;;;;;5009163;28;20445;-67
2023/05/13 07:20:28;;;;;;;5.03;4.50;;;11.60;95.20;;;;;;5008786;28;20453;-67
2023/05/13 07:22:57;;;;;;;5.10;4.60;;;11.60;95.40;;;;;;5007804;28;20495;-67
2023/05/13 07:25:25;;;;;;;4.90;4.50;;;11.60;95.90;;;;;;5009749;28;20489;-67
2023/05/13 07:27:53;;;;;;;5.67;5.10;;;11.60;96.00;;;;;;5009709;28;20552;-67
2023/05/13 07:30:21;;;;;;;5.00;4.50;;;11.60;95.90;;;;;;5009728;28;20919;-67
2023/05/13 07:32:49;;;;;;;5.20;4.80;;;11.40;95.70;;;;;;5008252;28;20446;-67
2023/05/13 07:35:21;;;;;;;5.37;4.90;;;11.50;96.30;;;;;;5009289;28;20516;-67
2023/05/13 07:37:49;;;;;;;5.13;4.20;;;11.50;96.90;;;;;;5009515;28;20525;-66
2023/05/13 07:40:19;;;;;;;5.77;5.20;;;11.50;97.00;;;;;;5009547;28;20445;-66
2023/05/13 07:42:48;;;;;;;6.20;4.83;;;11.50;96.90;;;;;;5008395;28;20466;-66
2023/05/13 07:45:16;;;;;;;6.80;4.53;;;11.50;96.90;;;;;;5008947;28;21016;-67
2023/05/13 07:47:44;;;;;;;5.10;4.70;;;11.60;96.70;;;;;;5009413;28;20452;-66
2023/05/13 07:50:12;;;;;;;4.87;4.40;;;11.60;96.20;;;;;;5009135;28;20967;-67
2023/05/13 07:52:40;;;;;;;6.07;5.10;;;11.50;96.20;;;;;;5008445;28;20449;-67
2023/05/13 07:55:09;;;;;;;5.53;4.50;;;11.50;96.20;;;;;;5009310;28;20615;-66
2023/05/13 07:57:38;;;;;;;5.90;5.20;;;11.50;96.00;;;;;;5010877;28;20441;-67
2023/05/13 08:00:07;;;;;;;7.53;6.77;;;11.60;96.10;;;;;;5012835;28;20936;-66
2023/05/13 08:02:38;;;;;;;7.10;6.18;;;11.70;96.90;;;;;;5010504;28;20438;-67
2023/05/13 08:05:06;;;;;;;5.90;5.30;;;11.70;96.20;;;;;;5012996;28;20234;-67
2023/05/13 08:07:35;;;;;;;6.50;5.90;;;11.60;97.10;;;;;;5012846;28;20456;-66
2023/05/13 08:10:03;;;;;;;5.93;5.33;;;11.60;97.00;;;;;;5012692;28;20449;-67
2023/05/13 08:12:31;;;;;;;6.37;4.90;;;11.70;97.20;;;;;;5011457;28;20451;-67
2023/05/13 08:15:02;;;;;;;7.07;5.40;;;11.80;96.40;;;;;;5012116;28;20536;-66
2023/05/13 08:17:30;;;;;;;6.20;5.07;;;11.90;95.50;;;;;;5012694;28;20455;-67
2023/05/13 08:19:58;;;;;;;6.10;5.50;;;12.00;95.90;;;;;;5012877;28;20438;-67
2023/05/13 08:22:27;;;;;;;6.63;5.37;;;12.00;96.10;;;;;;5011379;28;20447;-67
2023/05/13 08:24:55;;;;;;;6.60;4.70;;;12.20;96.10;;;;;;5012758;28;20478;-67
2023/05/13 08:27:23;;;;;;;6.23;4.50;;;12.40;94.20;;;;;;5013064;28;20525;-66
2023/05/13 08:29:51;;;;;;;4.73;4.40;;;12.40;93.40;;;;;;5012373;28;21395;-67
2023/05/13 08:32:20;;;;;;;5.10;4.70;;;12.40;94.50;;;;;;5012252;28;20538;-67
2023/05/13 08:34:48;;;;;;;5.00;4.60;;;12.60;95.60;;;;;;5011851;28;20476;-67
2023/05/13 08:37:16;;;;;;;6.63;5.10;;;12.90;94.30;;;;;;5012502;28;20453;-67
2023/05/13 08:39:44;;;;;;;5.50;5.03;;;13.00;92.80;;;;;;5012153;28;20445;-67
2023/05/13 08:42:18;;;;;;;5.13;4.73;;;13.30;94.00;;;;;;5011570;28;20480;-67
2023/05/13 08:44:47;;;;;;;4.27;3.87;;;13.70;93.60;;;;;;5010735;28;21086;-67
2023/05/13 08:47:26;;;;;;;4.83;4.43;;;13.80;87.20;;;;;;5012179;28;20532;-67
2023/05/13 08:49:56;;;;;;;5.43;4.23;;;13.90;90.30;;;;;;5011949;28;20489;-67
2023/05/13 08:52:25;;;;;;;4.43;4.03;;;13.80;87.70;;;;;;5011030;28;20441;-67
2023/05/13 08:54:54;;;;;;;4.83;4.33;;;13.50;88.70;;;;;;5011897;28;21025;-67
2023/05/13 08:57:22;;;;;;;7.83;4.80;;;13.40;90.60;;;;;;5011747;28;20442;-67
2023/05/13 08:59:50;;;;;;;5.50;4.77;;;13.20;90.40;;;;;;5011811;28;20483;-67
2023/05/13 09:02:18;;;;;;;4.17;3.87;;;13.10;92.10;;;;;;5010982;28;20441;-67
2023/05/13 09:04:51;;;;;;;4.93;4.50;;;13.20;91.00;;;;;;5010930;28;20861;-67
2023/05/13 09:07:19;;;;;;;4.97;4.47;;;13.20;91.00;;;;;;5011599;28;20445;-67
2023/05/13 09:09:47;;;;;;;4.77;4.37;;;13.20;90.70;;;;;;5010696;28;20446;-67
2023/05/13 09:12:50;;;;;;;4.87;4.47;;;13.10;91.10;;;;;;5010901;28;20450;-67
2023/05/13 09:15:20;;;;;;;4.77;4.23;;;13.40;92.90;;;;;;5002819;28;20464;-67
2023/05/13 09:17:51;;;;;;;5.37;4.87;;;13.70;89.80;;;;;;5011467;28;20438;-67
2023/05/13 09:20:24;;;;;;;5.03;4.47;;;13.90;90.00;;;;;;5011566;28;20469;-67
2023/05/13 09:22:53;;;;;;;4.43;4.00;;;13.90;88.30;;;;;;5010111;28;20439;-67
2023/05/13 09:25:23;;;;;;;4.93;4.53;;;14.20;89.00;;;;;;5010953;28;20481;-67
2023/05/13 09:27:56;;;;;;;4.63;4.23;;;14.40;89.60;;;;;;5011092;28;20540;-67
2023/05/13 09:30:24;;;;;;;3.90;3.60;;;14.80;85.70;;;;;;5010960;28;20454;-67
2023/05/13 09:33:07;;;;;;;5.90;5.50;;;15.10;82.60;;;;;;5010286;28;21015;-66
2023/05/13 09:35:38;;;;;;;4.63;4.23;;;14.90;82.90;;;;;;5010894;28;20477;-66
2023/05/13 09:38:14;;;;;;;4.33;3.87;;;14.70;84.50;;;;;;5010946;28;20446;-67
2023/05/13 09:40:49;;;;;;;5.30;3.80;;;14.60;87.40;;;;;;5010748;28;20469;-67
2023/05/13 09:43:19;;;;;;;5.30;4.80;;;14.80;85.20;;;;;;5009590;28;21118;-68
2023/05/13 09:45:47;;;;;;;4.90;4.40;;;15.00;85.60;;;;;;5010620;28;20481;-68
2023/05/13 09:48:15;;;;;;;5.37;4.63;;;15.00;84.10;;;;;;5010879;28;20446;-66
2023/05/13 09:50:51;;;;;;;6.33;5.00;;;14.80;84.20;;;;;;5010753;28;20446;-66
2023/05/13 09:53:19;;;;;;;4.43;3.90;;;14.60;84.10;;;;;;5009831;28;20441;-66
2023/05/13 09:55:48;;;;;;;4.40;4.00;;;14.60;86.10;;;;;;5009349;28;20550;-67
2023/05/13 09:58:17;;;;;;;4.40;4.00;;;14.60;88.10;;;;;;5028153;28;20441;-73
2023/05/13 10:00:46;;;;;;;4.00;3.60;;;14.50;85.30;;;;;;5030484;28;20447;-67
2023/05/13 10:03:15;;;;;;;4.10;3.57;;;14.50;87.70;;;;;;5028835;28;20949;-67
2023/05/13 10:05:43;;;;;;;5.57;5.07;;;14.70;88.00;;;;;;5030155;28;20481;-67
2023/05/13 10:08:14;;;;;;;5.70;5.30;;;14.50;84.50;;;;;;5029982;28;20452;-67
2023/05/13 10:10:44;;;;;;;7.30;6.67;;;14.20;86.40;;;;;;5030246;28;20443;-67
2023/05/13 10:13:14;;;;;;;5.47;4.93;;;14.00;90.10;;;;;;5016823;28;20470;-66
2023/05/13 10:15:48;;;;;;;5.10;4.50;;;13.80;90.60;;;;;;5009107;28;20470;-67
2023/05/13 10:18:17;;;;;;;6.40;5.80;;;13.60;90.70;;;;;;5009490;28;20530;-66
2023/05/13 10:20:45;;;;;;;7.27;5.70;;;13.60;91.70;;;;;;5006540;28;20477;-66
2023/05/13 10:23:15;;;;;;;5.53;5.03;;;13.70;91.40;;;;;;5004653;28;20945;-66
2023/05/13 10:25:44;;;;;;;5.73;4.80;;;13.60;91.50;;;;;;5006448;28;20485;-66
2023/05/13 10:28:13;;;;;;;5.53;5.13;;;13.60;90.90;;;;;;5007521;28;20436;-66
2023/05/13 10:30:42;;;;;;;5.63;5.13;;;13.60;90.60;;;;;;5006721;28;20444;-66
2023/05/13 10:33:10;;;;;;;5.60;4.87;;;13.60;90.90;;;;;;5005687;28;20463;-66
2023/05/13 10:35:42;;;;;;;5.47;4.53;;;13.60;90.70;;;;;;5005126;28;20473;-66
2023/05/13 10:38:16;;;;;;;6.10;5.43;;;13.60;91.00;;;;;;5001151;28;20457;-65
2023/05/13 10:40:55;;;;;;;5.60;5.10;;;13.60;91.90;;;;;;5007897;28;20525;-66
2023/05/13 10:43:25;;;;;;;5.47;5.07;;;13.60;91.40;;;;;;5006700;28;20453;-65
2023/05/13 10:45:58;;;;;;;5.80;5.30;;;13.60;92.00;;;;;;5007482;28;20486;-65
2023/05/13 10:48:26;;;;;;;5.77;4.50;;;13.50;91.30;;;;;;5002717;28;20441;-65
2023/05/13 10:50:56;;;;;;;6.20;5.70;;;13.50;92.00;;;;;;5008422;28;20441;-65
2023/05/13 10:53:28;;;;;;;5.03;4.63;;;13.50;92.10;;;;;;5006992;28;20525;-65
2023/05/13 10:55:58;;;;;;;5.10;4.70;;;13.50;91.90;;;;;;5007796;28;20499;-65
2023/05/13 10:58:29;;;;;;;5.10;4.60;;;13.40;91.70;;;;;;4995366;28;20464;-65
2023/05/13 11:01:16;;;;;;;5.00;4.60;;;13.40;92.40;;;;;;5002768;28;20507;-65
2023/05/13 11:03:52;;;;;;;6.93;6.30;;;13.50;92.60;;;;;;5002386;28;20564;-65
2023/05/13 11:06:22;;;;;;;4.70;4.30;;;13.70;92.40;;;;;;5003006;28;20488;-66
2023/05/13 11:08:52;;;;;;;4.40;4.00;;;14.10;90.40;;;;;;5005995;28;20468;-66
2023/05/13 11:11:29;;;;;;;4.23;3.80;;;14.40;89.40;;;;;;4996505;28;20454;-65
2023/05/13 11:14:08;;;;;;;4.70;4.30;;;14.60;86.80;;;;;;5005006;28;20453;-65
2023/05/13 11:16:36;;;;;;;4.57;4.23;;;14.80;85.80;;;;;;5005072;28;20466;-66
2023/05/13 11:19:18;;;;;;;4.20;3.80;;;14.80;85.80;;;;;;5009478;28;20438;-66
2023/05/13 11:21:49;;;;;;;5.40;4.90;;;14.80;88.40;;;;;;5009428;28;20455;-67
2023/05/13 11:24:20;;;;;;;4.37;4.07;;;14.50;86.40;;;;;;5008511;28;20834;-67
2023/05/13 11:26:51;;;;;;;7.93;5.73;;;14.20;89.30;;;;;;5009357;28;20477;-66
2023/05/13 11:29:29;;;;;;;5.33;4.80;;;14.10;90.70;;;;;;5009239;28;20445;-67
2023/05/13 11:31:58;;;;;;;4.80;4.40;;;14.10;90.80;;;;;;5010075;28;20438;-66
2023/05/13 11:34:28;;;;;;;5.40;5.00;;;14.20;90.40;;;;;;5012018;28;20463;-66
2023/05/13 11:36:58;;;;;;;4.50;4.10;;;14.50;88.70;;;;;;5013328;28;20461;-67
2023/05/13 11:39:27;;;;;;;4.33;4.03;;;14.80;88.30;;;;;;5012992;28;20449;-66
2023/05/13 11:41:56;;;;;;;7.33;4.50;;;15.20;85.40;;;;;;5011854;28;20446;-66
2023/05/13 11:44:25;;;;;;;6.47;4.63;;;15.40;82.70;;;;;;5002307;28;20482;-67
2023/05/13 11:46:54;;;;;;;4.03;3.73;;;15.40;85.40;;;;;;5010762;28;20480;-66
2023/05/13 11:49:37;;;;;;;3.80;3.50;;;15.60;82.80;;;;;;5012457;28;20476;-66
2023/05/13 11:52:07;;;;;;;4.23;3.70;;;15.50;81.30;;;;;;5012487;28;20482;-67
2023/05/13 11:54:46;;;;;;;4.50;4.10;;;15.20;80.70;;;;;;5011784;28;20456;-67
2023/05/13 11:57:21;;;;;;;4.60;4.10;;;14.80;83.50;;;;;;5023737;28;20469;-66
2023/05/13 11:59:51;;;;;;;4.63;4.30;;;14.70;84.70;;;;;;5012595;28;20858;-67
2023/05/13 12:02:21;;;;;;;5.73;5.13;;;14.70;87.70;;;;;;5008641;28;20979;-66
2023/05/13 12:04:50;;;;;;;4.90;4.50;;;15.00;85.20;;;;;;5012298;28;20455;-67
2023/05/13 12:07:23;;;;;;;4.20;3.90;;;14.80;82.10;;;;;;5011634;28;21106;-67
2023/05/13 12:09:55;;;;;;;4.43;4.13;;;14.80;82.00;;;;;;5012611;28;20960;-66
2023/05/13 12:12:24;;;;;;;5.47;4.97;;;14.80;82.40;;;;;;5012045;28;20442;-66
2023/05/13 12:14:53;;;;;;;4.33;3.93;;;14.80;82.70;;;;;;5012197;28;20444;-67
2023/05/13 12:17:21;;;;;;;5.27;4.87;;;15.00;86.10;;;;;;5012783;28;20495;-67
2023/05/13 12:20:09;;;;;;;4.47;4.17;;;15.50;86.00;;;;;;5012802;28;20993;-67
2023/05/13 12:22:37;;;;;;;5.13;4.63;;;15.90;78.60;;;;;;5012319;28;20442;-67
2023/05/13 12:25:38;;;;;;;5.20;4.80;;;16.10;80.30;;;;;;5012363;28;20463;-67
2023/05/13 12:28:10;;;;;;;4.43;3.70;;;16.30;79.40;;;;;;5012453;28;20489;-66
2023/05/13 12:30:39;;;;;;;5.00;4.60;;;16.30;78.90;;;;;;5012121;28;20457;-67
2023/05/13 12:33:13;;;;;;;4.47;4.07;;;16.30;83.30;;;;;;5011067;28;20986;-67
2023/05/13 12:35:41;;;;;;;5.00;4.60;;;16.40;79.20;;;;;;5011983;28;20472;-67
2023/05/13 12:38:16;;;;;;;4.77;4.37;;;16.80;77.60;;;;;;5012190;28;20438;-67
2023/05/13 12:40:45;;;;;;;4.60;4.20;;;16.80;74.70;;;;;;5012353;28;20445;-67
2023/05/13 12:43:16;;;;;;;4.30;3.97;;;16.80;78.10;;;;;;5010788;28;20482;-67
2023/05/13 12:45:46;;;;;;;4.37;3.90;;;17.10;78.50;;;;;;5011818;28;20460;-67
2023/05/13 12:48:14;;;;;;;5.53;4.97;;;17.30;77.90;;;;;;5011785;28;20484;-67
2023/05/13 12:50:42;;;;;;;6.90;6.30;;;17.80;76.20;;;;;;5011957;28;20438;-67
2023/05/13 12:53:10;;;;;;;5.17;4.67;;;18.30;76.10;;;;;;5010771;28;20452;-67
2023/05/13 12:55:38;;;;;;;3.63;3.33;;;19.00;69.70;;;;;;5012090;28;20458;-67
2023/05/13 12:58:11;;;;;;;3.83;3.53;;;19.60;68.00;;;;;;5011709;28;20446;-67
2023/05/13 13:00:38;;;;;;;3.87;3.57;;;19.70;63.90;;;;;;5011853;28;20444;-67